sensor_id;sensor_type;location;lat;lon;timestamp;temperature;humidity
78289;DHT22;67539;48.752;12.922;2023-05-10T00:01:14;13.60;73.30
78289;DHT22;67539;48.752;12.922;2023-05-10T00:03:42;13.60;73.50
78289;DHT22;67539;48.752;12.922;2023-05-10T00:06:10;13.60;73.50
78289;DHT22;67539;48.752;12.922;2023-05-10T00:08:38;13.70;74.10
78289;DHT22;67539;48.752;12.922;2023-05-10T00:11:08;13.70;73.80
78289;DHT22;67539;48.752;12.922;2023-05-10T00:13:36;13.70;74.10
78289;DHT22;67539;48.752;12.922;2023-05-10T00:16:05;13.70;74.30
78289;DHT22;67539;48.752;12.922;2023-05-10T00:18:33;13.70;74.50
78289;DHT22;67539;48.752;12.922;2023-05-10T00:21:01;13.70;74.40
78289;DHT22;67539;48.752;12.922;2023-05-10T00:23:29;13.70;75.80
78289;DHT22;67539;48.752;12.922;2023-05-10T00:25:57;13.70;76.20
78289;DHT22;67539;48.752;12.922;2023-05-10T00:28:28;13.70;76.30
78289;DHT22;67539;48.752;12.922;2023-05-10T00:30:56;13.60;76.40
78289;DHT22;67539;48.752;12.922;2023-05-10T00:33:25;13.60;76.70
78289;DHT22;67539;48.752;12.922;2023-05-10T00:35:53;13.60;77.70
78289;DHT22;67539;48.752;12.922;2023-05-10T00:38:21;13.60;77.90
78289;DHT22;67539;48.752;12.922;2023-05-10T00:40:49;13.60;78.40
78289;DHT22;67539;48.752;12.922;2023-05-10T00:43:24;13.60;80.50
78289;DHT22;67539;48.752;12.922;2023-05-10T00:45:54;13.60;81.20
78289;DHT22;67539;48.752;12.922;2023-05-10T00:48:22;13.50;82.30
78289;DHT22;67539;48.752;12.922;2023-05-10T00:50:51;13.50;82.50
78289;DHT22;67539;48.752;12.922;2023-05-10T00:53:19;13.50;83.30
78289;DHT22;67539;48.752;12.922;2023-05-10T00:55:47;13.40;83.90
78289;DHT22;67539;48.752;12.922;2023-05-10T00:58:15;13.40;85.20
78289;DHT22;67539;48.752;12.922;2023-05-10T01:00:46;13.40;87.20
78289;DHT22;67539;48.752;12.922;2023-05-10T01:03:16;13.30;88.30
78289;DHT22;67539;48.752;12.922;2023-05-10T01:05:45;13.30;89.40
78289;DHT22;67539;48.752;12.922;2023-05-10T01:08:13;13.30;90.20
78289;DHT22;67539;48.752;12.922;2023-05-10T01:10:42;13.30;90.90
78289;DHT22;67539;48.752;12.922;2023-05-10T01:13:11;13.30;91.20
78289;DHT22;67539;48.752;12.922;2023-05-10T01:15:41;13.20;91.50
78289;DHT22;67539;48.752;12.922;2023-05-10T01:18:09;13.30;91.80
78289;DHT22;67539;48.752;12.922;2023-05-10T01:20:41;13.20;91.90
78289;DHT22;67539;48.752;12.922;2023-05-10T01:23:31;13.20;92.10
78289;DHT22;67539;48.752;12.922;2023-05-10T01:26:34;13.20;92.20
78289;DHT22;67539;48.752;12.922;2023-05-10T01:29:29;13.20;92.50
78289;DHT22;67539;48.752;12.922;2023-05-10T01:32:18;13.20;92.60
78289;DHT22;67539;48.752;12.922;2023-05-10T01:34:56;13.20;92.60
78289;DHT22;67539;48.752;12.922;2023-05-10T01:37:33;13.20;92.80
78289;DHT22;67539;48.752;12.922;2023-05-10T01:40:10;13.20;92.90
78289;DHT22;67539;48.752;12.922;2023-05-10T01:42:47;13.20;93.10
78289;DHT22;67539;48.752;12.922;2023-05-10T01:45:24;13.20;93.20
78289;DHT22;67539;48.752;12.922;2023-05-10T01:48:02;13.20;93.20
78289;DHT22;67539;48.752;12.922;2023-05-10T01:50:33;13.10;93.40
78289;DHT22;67539;48.752;12.922;2023-05-10T01:53:03;13.10;93.70
78289;DHT22;67539;48.752;12.922;2023-05-10T01:55:35;13.10;94.00
78289;DHT22;67539;48.752;12.922;2023-05-10T01:58:08;13.10;94.80
78289;DHT22;67539;48.752;12.922;2023-05-10T02:00:40;13.10;95.10
78289;DHT22;67539;48.752;12.922;2023-05-10T02:03:12;13.00;95.40
78289;DHT22;67539;48.752;12.922;2023-05-10T02:05:43;13.00;95.60
78289;DHT22;67539;48.752;12.922;2023-05-10T02:08:13;12.90;95.70
78289;DHT22;67539;48.752;12.922;2023-05-10T02:10:44;12.90;96.10
78289;DHT22;67539;48.752;12.922;2023-05-10T02:13:13;12.90;96.10
78289;DHT22;67539;48.752;12.922;2023-05-10T02:15:43;12.90;95.80
78289;DHT22;67539;48.752;12.922;2023-05-10T02:18:13;12.90;95.60
78289;DHT22;67539;48.752;12.922;2023-05-10T02:20:44;12.90;95.70
78289;DHT22;67539;48.752;12.922;2023-05-10T02:23:17;12.90;95.90
78289;DHT22;67539;48.752;12.922;2023-05-10T02:25:46;12.90;95.70
78289;DHT22;67539;48.752;12.922;2023-05-10T02:28:17;12.90;95.70
78289;DHT22;67539;48.752;12.922;2023-05-10T02:30:47;12.90;95.80
78289;DHT22;67539;48.752;12.922;2023-05-10T02:33:18;12.90;95.60
78289;DHT22;67539;48.752;12.922;2023-05-10T02:35:47;13.00;95.40
78289;DHT22;67539;48.752;12.922;2023-05-10T02:38:19;13.00;95.30
78289;DHT22;67539;48.752;12.922;2023-05-10T02:40:50;13.00;95.30
78289;DHT22;67539;48.752;12.922;2023-05-10T02:43:22;13.00;95.40
78289;DHT22;67539;48.752;12.922;2023-05-10T02:45:51;13.00;95.40
78289;DHT22;67539;48.752;12.922;2023-05-10T02:48:21;13.00;95.50
78289;DHT22;67539;48.752;12.922;2023-05-10T02:50:50;13.00;95.50
78289;DHT22;67539;48.752;12.922;2023-05-10T02:53:23;12.90;95.50
78289;DHT22;67539;48.752;12.922;2023-05-10T02:55:58;12.90;95.60
78289;DHT22;67539;48.752;12.922;2023-05-10T02:58:27;12.90;95.90
78289;DHT22;67539;48.752;12.922;2023-05-10T03:00:55;12.90;95.70
78289;DHT22;67539;48.752;12.922;2023-05-10T03:03:25;12.90;95.50
78289;DHT22;67539;48.752;12.922;2023-05-10T03:05:53;12.90;95.40
78289;DHT22;67539;48.752;12.922;2023-05-10T03:08:23;12.90;95.30
78289;DHT22;67539;48.752;12.922;2023-05-10T03:11:03;12.90;95.40
78289;DHT22;67539;48.752;12.922;2023-05-10T03:13:39;12.90;95.30
78289;DHT22;67539;48.752;12.922;2023-05-10T03:16:14;12.90;95.10
78289;DHT22;67539;48.752;12.922;2023-05-10T03:18:53;12.90;95.10
78289;DHT22;67539;48.752;12.922;2023-05-10T03:21:25;12.90;95.20
78289;DHT22;67539;48.752;12.922;2023-05-10T03:23:59;12.90;95.10
78289;DHT22;67539;48.752;12.922;2023-05-10T03:26:34;12.90;95.20
78289;DHT22;67539;48.752;12.922;2023-05-10T03:29:08;12.90;95.20
78289;DHT22;67539;48.752;12.922;2023-05-10T03:31:38;12.80;95.20
78289;DHT22;67539;48.752;12.922;2023-05-10T03:34:08;12.80;95.20
78289;DHT22;67539;48.752;12.922;2023-05-10T03:36:36;12.80;95.20
78289;DHT22;67539;48.752;12.922;2023-05-10T03:39:04;12.80;95.50
78289;DHT22;67539;48.752;12.922;2023-05-10T03:41:33;12.80;95.40
78289;DHT22;67539;48.752;12.922;2023-05-10T03:44:01;12.80;95.60
78289;DHT22;67539;48.752;12.922;2023-05-10T03:46:30;12.80;95.70
78289;DHT22;67539;48.752;12.922;2023-05-10T03:48:58;12.80;96.10
78289;DHT22;67539;48.752;12.922;2023-05-10T03:51:28;12.80;96.10
78289;DHT22;67539;48.752;12.922;2023-05-10T03:53:58;12.80;96.00
78289;DHT22;67539;48.752;12.922;2023-05-10T03:56:26;12.80;96.00
78289;DHT22;67539;48.752;12.922;2023-05-10T03:58:55;12.80;96.10
78289;DHT22;67539;48.752;12.922;2023-05-10T04:01:23;12.80;96.30
78289;DHT22;67539;48.752;12.922;2023-05-10T04:03:51;12.80;96.00
78289;DHT22;67539;48.752;12.922;2023-05-10T04:06:20;12.80;96.10
78289;DHT22;67539;48.752;12.922;2023-05-10T04:08:50;12.80;96.10
78289;DHT22;67539;48.752;12.922;2023-05-10T04:11:18;12.70;96.20
78289;DHT22;67539;48.752;12.922;2023-05-10T04:13:48;12.70;96.40
78289;DHT22;67539;48.752;12.922;2023-05-10T04:16:16;12.70;96.30
78289;DHT22;67539;48.752;12.922;2023-05-10T04:18:45;12.70;96.30
78289;DHT22;67539;48.752;12.922;2023-05-10T04:21:13;12.70;96.30
78289;DHT22;67539;48.752;12.922;2023-05-10T04:23:41;12.70;96.40
78289;DHT22;67539;48.752;12.922;2023-05-10T04:26:11;12.70;96.20
78289;DHT22;67539;48.752;12.922;2023-05-10T04:28:39;12.70;96.40
78289;DHT22;67539;48.752;12.922;2023-05-10T04:31:08;12.70;96.30
78289;DHT22;67539;48.752;12.922;2023-05-10T04:33:37;12.70;96.30
78289;DHT22;67539;48.752;12.922;2023-05-10T04:36:06;12.70;96.40
78289;DHT22;67539;48.752;12.922;2023-05-10T04:38:34;12.80;96.50
78289;DHT22;67539;48.752;12.922;2023-05-10T04:41:05;12.80;96.50
78289;DHT22;67539;48.752;12.922;2023-05-10T04:43:36;12.80;96.60
78289;DHT22;67539;48.752;12.922;2023-05-10T04:46:05;12.80;96.60
78289;DHT22;67539;48.752;12.922;2023-05-10T04:48:34;12.80;96.70
78289;DHT22;67539;48.752;12.922;2023-05-10T04:51:02;12.80;96.90
78289;DHT22;67539;48.752;12.922;2023-05-10T04:53:31;12.80;97.10
78289;DHT22;67539;48.752;12.922;2023-05-10T04:55:59;12.80;97.20
78289;DHT22;67539;48.752;12.922;2023-05-10T04:58:28;12.80;97.50
78289;DHT22;67539;48.752;12.922;2023-05-10T05:00:57;12.80;97.80
78289;DHT22;67539;48.752;12.922;2023-05-10T05:03:25;12.70;97.60
78289;DHT22;67539;48.752;12.922;2023-05-10T05:05:53;12.70;97.70
78289;DHT22;67539;48.752;12.922;2023-05-10T05:08:21;12.80;97.80
78289;DHT22;67539;48.752;12.922;2023-05-10T05:10:50;12.70;97.90
78289;DHT22;67539;48.752;12.922;2023-05-10T05:13:19;12.70;98.20
78289;DHT22;67539;48.752;12.922;2023-05-10T05:15:47;12.70;98.50
78289;DHT22;67539;48.752;12.922;2023-05-10T05:18:16;12.70;98.80
78289;DHT22;67539;48.752;12.922;2023-05-10T05:20:44;12.70;99.00
78289;DHT22;67539;48.752;12.922;2023-05-10T05:23:13;12.70;99.10
78289;DHT22;67539;48.752;12.922;2023-05-10T05:25:41;12.70;99.40
78289;DHT22;67539;48.752;12.922;2023-05-10T05:28:09;12.60;99.60
78289;DHT22;67539;48.752;12.922;2023-05-10T05:30:37;12.60;99.90
78289;DHT22;67539;48.752;12.922;2023-05-10T05:33:05;12.60;99.90
78289;DHT22;67539;48.752;12.922;2023-05-10T05:35:35;12.60;99.90
78289;DHT22;67539;48.752;12.922;2023-05-10T05:38:03;12.60;99.90
78289;DHT22;67539;48.752;12.922;2023-05-10T05:40:31;12.60;99.90
78289;DHT22;67539;48.752;12.922;2023-05-10T05:42:59;12.70;99.90
78289;DHT22;67539;48.752;12.922;2023-05-10T05:45:27;12.70;99.90
78289;DHT22;67539;48.752;12.922;2023-05-10T05:47:55;12.70;99.90
78289;DHT22;67539;48.752;12.922;2023-05-10T05:50:24;12.80;99.90
78289;DHT22;67539;48.752;12.922;2023-05-10T05:52:53;12.70;99.90
78289;DHT22;67539;48.752;12.922;2023-05-10T05:55:22;12.70;99.90
78289;DHT22;67539;48.752;12.922;2023-05-10T05:57:50;12.70;99.90
78289;DHT22;67539;48.752;12.922;2023-05-10T06:00:18;12.70;99.90
78289;DHT22;67539;48.752;12.922;2023-05-10T06:02:48;12.70;99.90
78289;DHT22;67539;48.752;12.922;2023-05-10T06:05:16;12.70;99.90
78289;DHT22;67539;48.752;12.922;2023-05-10T06:07:44;12.60;99.90
78289;DHT22;67539;48.752;12.922;2023-05-10T06:10:14;12.60;99.90
78289;DHT22;67539;48.752;12.922;2023-05-10T06:12:42;12.60;99.90
78289;DHT22;67539;48.752;12.922;2023-05-10T06:15:10;12.50;99.90
78289;DHT22;67539;48.752;12.922;2023-05-10T06:17:39;12.50;99.90
78289;DHT22;67539;48.752;12.922;2023-05-10T06:20:08;12.60;99.90
78289;DHT22;67539;48.752;12.922;2023-05-10T06:22:36;12.60;99.90
78289;DHT22;67539;48.752;12.922;2023-05-10T06:25:05;12.60;99.90
78289;DHT22;67539;48.752;12.922;2023-05-10T06:27:35;12.60;99.90
78289;DHT22;67539;48.752;12.922;2023-05-10T06:30:04;12.60;99.90
78289;DHT22;67539;48.752;12.922;2023-05-10T06:32:39;12.60;99.90
78289;DHT22;67539;48.752;12.922;2023-05-10T06:35:08;12.60;99.90
78289;DHT22;67539;48.752;12.922;2023-05-10T06:37:36;12.50;99.90
78289;DHT22;67539;48.752;12.922;2023-05-10T06:40:06;12.50;99.90
78289;DHT22;67539;48.752;12.922;2023-05-10T06:42:35;12.60;99.90
78289;DHT22;67539;48.752;12.922;2023-05-10T06:45:05;12.60;99.90
78289;DHT22;67539;48.752;12.922;2023-05-10T06:47:33;12.60;99.90
78289;DHT22;67539;48.752;12.922;2023-05-10T06:50:05;12.50;99.90
78289;DHT22;67539;48.752;12.922;2023-05-10T06:52:34;12.40;99.90
78289;DHT22;67539;48.752;12.922;2023-05-10T06:55:02;12.40;99.90
78289;DHT22;67539;48.752;12.922;2023-05-10T06:57:31;12.40;99.90
78289;DHT22;67539;48.752;12.922;2023-05-10T07:00:00;12.40;99.90
78289;DHT22;67539;48.752;12.922;2023-05-10T07:02:31;12.40;99.90
78289;DHT22;67539;48.752;12.922;2023-05-10T07:04:59;12.30;99.90
78289;DHT22;67539;48.752;12.922;2023-05-10T07:07:40;12.30;99.90
78289;DHT22;67539;48.752;12.922;2023-05-10T07:10:09;12.30;99.90
78289;DHT22;67539;48.752;12.922;2023-05-10T07:12:37;12.30;99.90
78289;DHT22;67539;48.752;12.922;2023-05-10T07:15:08;12.30;99.90
78289;DHT22;67539;48.752;12.922;2023-05-10T07:17:37;12.40;99.90
78289;DHT22;67539;48.752;12.922;2023-05-10T07:20:06;12.40;99.90
78289;DHT22;67539;48.752;12.922;2023-05-10T07:22:35;12.40;99.90
78289;DHT22;67539;48.752;12.922;2023-05-10T07:25:03;12.40;99.90
78289;DHT22;67539;48.752;12.922;2023-05-10T07:27:31;12.50;99.90
78289;DHT22;67539;48.752;12.922;2023-05-10T07:29:59;12.50;99.90
78289;DHT22;67539;48.752;12.922;2023-05-10T07:32:29;12.50;99.90
78289;DHT22;67539;48.752;12.922;2023-05-10T07:34:58;12.50;99.90
78289;DHT22;67539;48.752;12.922;2023-05-10T07:37:26;12.50;99.90
78289;DHT22;67539;48.752;12.922;2023-05-10T07:39:54;12.50;99.90
78289;DHT22;67539;48.752;12.922;2023-05-10T07:42:22;12.60;99.90
78289;DHT22;67539;48.752;12.922;2023-05-10T07:44:50;12.60;99.90
78289;DHT22;67539;48.752;12.922;2023-05-10T07:47:19;12.60;99.90
78289;DHT22;67539;48.752;12.922;2023-05-10T07:49:48;12.60;99.90
78289;DHT22;67539;48.752;12.922;2023-05-10T07:52:16;12.60;99.90
78289;DHT22;67539;48.752;12.922;2023-05-10T07:54:47;12.70;99.90
78289;DHT22;67539;48.752;12.922;2023-05-10T07:57:15;12.70;99.90
78289;DHT22;67539;48.752;12.922;2023-05-10T07:59:44;12.70;99.90
78289;DHT22;67539;48.752;12.922;2023-05-10T08:02:12;12.70;99.90
78289;DHT22;67539;48.752;12.922;2023-05-10T08:04:40;12.70;99.90
78289;DHT22;67539;48.752;12.922;2023-05-10T08:07:10;12.70;99.90
78289;DHT22;67539;48.752;12.922;2023-05-10T08:09:38;12.80;99.90
78289;DHT22;67539;48.752;12.922;2023-05-10T08:12:06;12.80;99.90
78289;DHT22;67539;48.752;12.922;2023-05-10T08:14:34;12.80;99.90
78289;DHT22;67539;48.752;12.922;2023-05-10T08:17:03;12.80;99.90
78289;DHT22;67539;48.752;12.922;2023-05-10T08:19:31;12.80;99.90
78289;DHT22;67539;48.752;12.922;2023-05-10T08:21:59;12.80;99.90
78289;DHT22;67539;48.752;12.922;2023-05-10T08:24:29;12.80;99.90
78289;DHT22;67539;48.752;12.922;2023-05-10T08:26:57;12.90;99.90
78289;DHT22;67539;48.752;12.922;2023-05-10T08:29:25;12.80;99.90
78289;DHT22;67539;48.752;12.922;2023-05-10T08:31:56;12.80;99.90
78289;DHT22;67539;48.752;12.922;2023-05-10T08:34:24;12.90;99.90
78289;DHT22;67539;48.752;12.922;2023-05-10T08:36:53;12.90;99.90
78289;DHT22;67539;48.752;12.922;2023-05-10T08:39:21;13.00;99.90
78289;DHT22;67539;48.752;12.922;2023-05-10T08:42:01;13.10;99.90
78289;DHT22;67539;48.752;12.922;2023-05-10T08:44:31;13.10;99.90
78289;DHT22;67539;48.752;12.922;2023-05-10T08:46:59;13.20;99.90
78289;DHT22;67539;48.752;12.922;2023-05-10T08:49:31;13.20;99.90
78289;DHT22;67539;48.752;12.922;2023-05-10T08:52:02;13.10;99.90
78289;DHT22;67539;48.752;12.922;2023-05-10T08:54:32;13.10;99.90
78289;DHT22;67539;48.752;12.922;2023-05-10T08:57:02;13.20;99.90
78289;DHT22;67539;48.752;12.922;2023-05-10T08:59:30;13.20;99.90
78289;DHT22;67539;48.752;12.922;2023-05-10T09:02:00;13.20;99.90
78289;DHT22;67539;48.752;12.922;2023-05-10T09:04:29;13.20;99.90
78289;DHT22;67539;48.752;12.922;2023-05-10T09:06:58;13.30;99.90
78289;DHT22;67539;48.752;12.922;2023-05-10T09:09:27;13.40;99.90
78289;DHT22;67539;48.752;12.922;2023-05-10T09:11:56;13.50;99.90
78289;DHT22;67539;48.752;12.922;2023-05-10T09:14:25;13.50;99.90
78289;DHT22;67539;48.752;12.922;2023-05-10T09:16:54;13.50;99.90
78289;DHT22;67539;48.752;12.922;2023-05-10T09:19:23;13.50;99.90
78289;DHT22;67539;48.752;12.922;2023-05-10T09:21:51;13.50;99.90
78289;DHT22;67539;48.752;12.922;2023-05-10T09:24:20;13.40;99.90
78289;DHT22;67539;48.752;12.922;2023-05-10T09:26:52;13.50;99.90
78289;DHT22;67539;48.752;12.922;2023-05-10T09:29:21;13.50;99.90
78289;DHT22;67539;48.752;12.922;2023-05-10T09:31:51;13.50;99.90
78289;DHT22;67539;48.752;12.922;2023-05-10T09:34:29;13.60;99.90
78289;DHT22;67539;48.752;12.922;2023-05-10T09:36:59;13.60;99.90
78289;DHT22;67539;48.752;12.922;2023-05-10T09:39:32;13.70;99.90
78289;DHT22;67539;48.752;12.922;2023-05-10T09:42:02;13.60;99.90
78289;DHT22;67539;48.752;12.922;2023-05-10T09:44:31;13.70;99.90
78289;DHT22;67539;48.752;12.922;2023-05-10T09:47:01;13.70;99.90
78289;DHT22;67539;48.752;12.922;2023-05-10T09:49:30;13.70;99.90
78289;DHT22;67539;48.752;12.922;2023-05-10T09:52:02;13.80;99.90
78289;DHT22;67539;48.752;12.922;2023-05-10T09:54:31;13.70;99.90
78289;DHT22;67539;48.752;12.922;2023-05-10T09:57:00;13.70;99.90
78289;DHT22;67539;48.752;12.922;2023-05-10T09:59:28;13.70;99.90
78289;DHT22;67539;48.752;12.922;2023-05-10T10:01:58;13.70;99.90
78289;DHT22;67539;48.752;12.922;2023-05-10T10:04:29;13.80;99.90
78289;DHT22;67539;48.752;12.922;2023-05-10T10:07:01;13.80;99.90
78289;DHT22;67539;48.752;12.922;2023-05-10T10:09:30;13.90;99.90
78289;DHT22;67539;48.752;12.922;2023-05-10T10:11:59;14.00;99.90
78289;DHT22;67539;48.752;12.922;2023-05-10T10:14:29;14.00;99.90
78289;DHT22;67539;48.752;12.922;2023-05-10T10:17:00;14.00;99.90
78289;DHT22;67539;48.752;12.922;2023-05-10T10:19:35;14.10;99.90
78289;DHT22;67539;48.752;12.922;2023-05-10T10:22:04;14.20;99.90
78289;DHT22;67539;48.752;12.922;2023-05-10T10:24:33;14.30;99.90
78289;DHT22;67539;48.752;12.922;2023-05-10T10:27:12;14.40;99.90
78289;DHT22;67539;48.752;12.922;2023-05-10T10:29:49;14.40;99.90
78289;DHT22;67539;48.752;12.922;2023-05-10T10:32:24;14.40;99.90
78289;DHT22;67539;48.752;12.922;2023-05-10T10:34:55;14.50;99.90
78289;DHT22;67539;48.752;12.922;2023-05-10T10:37:42;14.60;99.90
78289;DHT22;67539;48.752;12.922;2023-05-10T10:40:28;14.70;99.90
78289;DHT22;67539;48.752;12.922;2023-05-10T10:43:21;14.80;99.90
78289;DHT22;67539;48.752;12.922;2023-05-10T10:46:13;14.90;99.90
78289;DHT22;67539;48.752;12.922;2023-05-10T10:48:48;15.00;99.90
78289;DHT22;67539;48.752;12.922;2023-05-10T10:51:18;14.90;99.90
78289;DHT22;67539;48.752;12.922;2023-05-10T10:53:47;14.90;99.90
78289;DHT22;67539;48.752;12.922;2023-05-10T10:56:22;15.00;99.90
78289;DHT22;67539;48.752;12.922;2023-05-10T10:58:51;15.10;99.90
78289;DHT22;67539;48.752;12.922;2023-05-10T11:01:21;15.30;99.90
78289;DHT22;67539;48.752;12.922;2023-05-10T11:04:18;15.40;99.90
78289;DHT22;67539;48.752;12.922;2023-05-10T11:06:49;15.40;99.90
78289;DHT22;67539;48.752;12.922;2023-05-10T11:09:17;15.40;99.90
78289;DHT22;67539;48.752;12.922;2023-05-10T11:11:52;15.50;99.90
78289;DHT22;67539;48.752;12.922;2023-05-10T11:14:22;15.50;99.90
78289;DHT22;67539;48.752;12.922;2023-05-10T11:16:51;15.60;99.90
78289;DHT22;67539;48.752;12.922;2023-05-10T11:19:19;15.80;99.90
78289;DHT22;67539;48.752;12.922;2023-05-10T11:21:51;15.90;99.90
78289;DHT22;67539;48.752;12.922;2023-05-10T11:24:56;15.90;99.90
78289;DHT22;67539;48.752;12.922;2023-05-10T11:27:25;16.10;99.90
78289;DHT22;67539;48.752;12.922;2023-05-10T11:29:54;16.20;99.90
78289;DHT22;67539;48.752;12.922;2023-05-10T11:32:22;16.30;99.90
78289;DHT22;67539;48.752;12.922;2023-05-10T11:34:51;16.40;99.90
78289;DHT22;67539;48.752;12.922;2023-05-10T11:37:20;16.30;99.90
78289;DHT22;67539;48.752;12.922;2023-05-10T11:39:49;16.30;99.90
78289;DHT22;67539;48.752;12.922;2023-05-10T11:42:17;16.40;99.90
78289;DHT22;67539;48.752;12.922;2023-05-10T11:44:47;16.30;99.90
78289;DHT22;67539;48.752;12.922;2023-05-10T11:47:15;16.20;99.90
78289;DHT22;67539;48.752;12.922;2023-05-10T11:49:44;16.10;99.90
78289;DHT22;67539;48.752;12.922;2023-05-10T11:52:13;16.20;99.90
78289;DHT22;67539;48.752;12.922;2023-05-10T11:54:51;16.50;99.90
78289;DHT22;67539;48.752;12.922;2023-05-10T11:57:25;16.50;99.50
78289;DHT22;67539;48.752;12.922;2023-05-10T11:59:54;16.50;99.10
78289;DHT22;67539;48.752;12.922;2023-05-10T12:02:23;16.50;98.70
78289;DHT22;67539;48.752;12.922;2023-05-10T12:04:51;16.50;98.90
78289;DHT22;67539;48.752;12.922;2023-05-10T12:07:20;16.40;98.70
78289;DHT22;67539;48.752;12.922;2023-05-10T12:10:08;16.20;99.90
78289;DHT22;67539;48.752;12.922;2023-05-10T12:12:38;16.20;99.90
78289;DHT22;67539;48.752;12.922;2023-05-10T12:15:12;16.30;99.90
78289;DHT22;67539;48.752;12.922;2023-05-10T12:17:45;16.50;99.90
78289;DHT22;67539;48.752;12.922;2023-05-10T12:20:19;16.70;99.90
78289;DHT22;67539;48.752;12.922;2023-05-10T12:22:50;17.00;99.90
78289;DHT22;67539;48.752;12.922;2023-05-10T12:25:21;17.30;99.90
78289;DHT22;67539;48.752;12.922;2023-05-10T12:27:54;17.60;99.90
78289;DHT22;67539;48.752;12.922;2023-05-10T12:30:24;17.80;98.50
78289;DHT22;67539;48.752;12.922;2023-05-10T12:33:00;17.80;97.90
78289;DHT22;67539;48.752;12.922;2023-05-10T12:35:32;18.00;97.70
78289;DHT22;67539;48.752;12.922;2023-05-10T12:38:01;18.10;97.40
78289;DHT22;67539;48.752;12.922;2023-05-10T12:40:50;18.00;97.40
78289;DHT22;67539;48.752;12.922;2023-05-10T12:43:19;18.10;97.90
78289;DHT22;67539;48.752;12.922;2023-05-10T12:45:47;18.10;98.70
78289;DHT22;67539;48.752;12.922;2023-05-10T12:48:15;18.20;99.40
78289;DHT22;67539;48.752;12.922;2023-05-10T12:50:44;18.40;97.90
78289;DHT22;67539;48.752;12.922;2023-05-10T12:53:13;18.20;97.50
78289;DHT22;67539;48.752;12.922;2023-05-10T12:55:42;18.40;98.20
78289;DHT22;67539;48.752;12.922;2023-05-10T12:58:12;18.50;98.40
78289;DHT22;67539;48.752;12.922;2023-05-10T13:01:00;18.70;98.10
78289;DHT22;67539;48.752;12.922;2023-05-10T13:03:28;18.80;98.20
78289;DHT22;67539;48.752;12.922;2023-05-10T13:05:57;18.90;97.90
78289;DHT22;67539;48.752;12.922;2023-05-10T13:08:25;19.10;98.40
78289;DHT22;67539;48.752;12.922;2023-05-10T13:10:54;19.30;97.50
78289;DHT22;67539;48.752;12.922;2023-05-10T13:13:24;19.40;96.90
78289;DHT22;67539;48.752;12.922;2023-05-10T13:15:52;19.30;96.60
78289;DHT22;67539;48.752;12.922;2023-05-10T13:18:20;19.40;96.90
78289;DHT22;67539;48.752;12.922;2023-05-10T13:20:48;19.40;96.80
78289;DHT22;67539;48.752;12.922;2023-05-10T13:23:17;19.50;96.90
78289;DHT22;67539;48.752;12.922;2023-05-10T13:25:45;19.50;96.50
78289;DHT22;67539;48.752;12.922;2023-05-10T13:28:13;19.50;95.40
78289;DHT22;67539;48.752;12.922;2023-05-10T13:30:43;19.60;94.80
78289;DHT22;67539;48.752;12.922;2023-05-10T13:33:11;19.60;94.40
78289;DHT22;67539;48.752;12.922;2023-05-10T13:35:39;19.70;94.60
78289;DHT22;67539;48.752;12.922;2023-05-10T13:38:07;19.80;94.50
78289;DHT22;67539;48.752;12.922;2023-05-10T13:40:36;19.80;93.80
78289;DHT22;67539;48.752;12.922;2023-05-10T13:43:04;19.80;94.20
78289;DHT22;67539;48.752;12.922;2023-05-10T13:45:32;19.80;94.10
78289;DHT22;67539;48.752;12.922;2023-05-10T13:48:02;19.80;92.50
78289;DHT22;67539;48.752;12.922;2023-05-10T13:50:30;19.60;91.20
78289;DHT22;67539;48.752;12.922;2023-05-10T13:52:59;19.50;91.40
78289;DHT22;67539;48.752;12.922;2023-05-10T13:55:27;19.40;92.90
78289;DHT22;67539;48.752;12.922;2023-05-10T13:57:55;19.40;92.90
78289;DHT22;67539;48.752;12.922;2023-05-10T14:00:24;19.30;93.20
78289;DHT22;67539;48.752;12.922;2023-05-10T14:02:52;19.20;94.10
78289;DHT22;67539;48.752;12.922;2023-05-10T14:05:21;19.10;93.90
78289;DHT22;67539;48.752;12.922;2023-05-10T14:07:52;19.00;92.60
78289;DHT22;67539;48.752;12.922;2023-05-10T14:10:20;18.90;93.30
78289;DHT22;67539;48.752;12.922;2023-05-10T14:12:49;18.80;93.10
78289;DHT22;67539;48.752;12.922;2023-05-10T14:15:18;18.80;92.70
78289;DHT22;67539;48.752;12.922;2023-05-10T14:17:46;18.80;92.50
78289;DHT22;67539;48.752;12.922;2023-05-10T14:20:15;18.70;92.90
78289;DHT22;67539;48.752;12.922;2023-05-10T14:22:44;18.60;94.30
78289;DHT22;67539;48.752;12.922;2023-05-10T14:25:13;18.40;92.90
78289;DHT22;67539;48.752;12.922;2023-05-10T14:27:42;18.30;93.00
78289;DHT22;67539;48.752;12.922;2023-05-10T14:30:11;18.20;93.70
78289;DHT22;67539;48.752;12.922;2023-05-10T14:32:40;18.30;94.90
78289;DHT22;67539;48.752;12.922;2023-05-10T14:35:08;18.30;95.60
78289;DHT22;67539;48.752;12.922;2023-05-10T14:37:39;18.30;96.00
78289;DHT22;67539;48.752;12.922;2023-05-10T14:40:10;18.20;96.40
78289;DHT22;67539;48.752;12.922;2023-05-10T14:42:39;18.20;96.90
78289;DHT22;67539;48.752;12.922;2023-05-10T14:45:08;18.20;97.20
78289;DHT22;67539;48.752;12.922;2023-05-10T14:47:36;18.30;97.50
78289;DHT22;67539;48.752;12.922;2023-05-10T14:50:06;18.40;97.20
78289;DHT22;67539;48.752;12.922;2023-05-10T14:52:34;18.40;97.10
78289;DHT22;67539;48.752;12.922;2023-05-10T14:55:03;18.40;97.60
78289;DHT22;67539;48.752;12.922;2023-05-10T14:57:32;18.30;97.60
78289;DHT22;67539;48.752;12.922;2023-05-10T15:00:01;18.30;98.00
78289;DHT22;67539;48.752;12.922;2023-05-10T15:02:30;18.30;98.20
78289;DHT22;67539;48.752;12.922;2023-05-10T15:04:59;18.30;98.60
78289;DHT22;67539;48.752;12.922;2023-05-10T15:07:28;18.30;98.70
78289;DHT22;67539;48.752;12.922;2023-05-10T15:09:58;18.40;98.70
78289;DHT22;67539;48.752;12.922;2023-05-10T15:12:26;18.40;98.70
78289;DHT22;67539;48.752;12.922;2023-05-10T15:14:55;18.40;98.70
78289;DHT22;67539;48.752;12.922;2023-05-10T15:17:24;18.40;98.70
78289;DHT22;67539;48.752;12.922;2023-05-10T15:19:52;18.40;98.70
78289;DHT22;67539;48.752;12.922;2023-05-10T15:22:20;18.50;98.60
78289;DHT22;67539;48.752;12.922;2023-05-10T15:24:49;18.50;98.40
78289;DHT22;67539;48.752;12.922;2023-05-10T15:27:17;18.50;98.00
78289;DHT22;67539;48.752;12.922;2023-05-10T15:29:45;18.50;98.10
78289;DHT22;67539;48.752;12.922;2023-05-10T15:32:15;18.50;98.10
78289;DHT22;67539;48.752;12.922;2023-05-10T15:34:43;18.40;98.40